createdAt,value
2018-08-20T00:01:44.260Z,4.63
2018-08-20T00:04:13.607Z,4.37
2018-08-20T00:06:51.705Z,4.53
2018-08-20T00:09:26.174Z,4.47
2018-08-20T00:11:55.469Z,4.10
2018-08-20T00:14:24.828Z,4.15
2018-08-20T00:16:54.116Z,4.35
2018-08-20T00:19:23.305Z,4.27
2018-08-20T00:21:52.660Z,4.35
2018-08-20T00:24:21.940Z,4.30
2018-08-20T00:26:51.188Z,4.60
2018-08-20T00:29:20.456Z,4.10
2018-08-20T00:31:52.232Z,3.90
2018-08-20T00:34:21.582Z,4.07
2018-08-20T00:36:50.784Z,4.08
2018-08-20T00:39:19.850Z,4.08
2018-08-20T00:41:49.100Z,3.87
2018-08-20T00:44:18.546Z,4.08
2018-08-20T00:46:47.672Z,3.90
2018-08-20T00:49:17.377Z,3.62
2018-08-20T00:51:46.751Z,3.62
2018-08-20T00:54:15.940Z,3.58
2018-08-20T00:56:45.176Z,3.50
2018-08-20T00:59:14.251Z,3.55
2018-08-20T01:01:43.608Z,3.70
2018-08-20T01:04:13.380Z,3.60
2018-08-20T01:06:42.620Z,3.30
2018-08-20T01:09:11.953Z,3.30
2018-08-20T01:11:41.159Z,3.10
2018-08-20T01:14:10.540Z,3.00
2018-08-20T01:16:39.891Z,3.50
2018-08-20T01:19:09.177Z,3.10
2018-08-20T01:21:38.412Z,3.33
2018-08-20T01:24:07.708Z,3.60
2018-08-20T01:26:37.048Z,3.40
2018-08-20T01:29:06.420Z,3.20
2018-08-20T01:31:35.670Z,3.40
2018-08-20T01:34:04.963Z,3.75
2018-08-20T01:36:34.157Z,3.60
2018-08-20T01:39:03.459Z,3.37
2018-08-20T01:41:32.563Z,3.58
2018-08-20T01:44:01.862Z,3.90
2018-08-20T01:46:30.948Z,3.92
2018-08-20T01:49:00.198Z,3.80
2018-08-20T01:51:29.365Z,4.20
2018-08-20T01:53:58.606Z,4.37
2018-08-20T01:56:27.913Z,4.10
2018-08-20T01:58:57.105Z,4.17
2018-08-20T02:01:26.400Z,4.10
2018-08-20T02:03:55.748Z,4.17
2018-08-20T02:06:25.095Z,4.20
2018-08-20T02:08:54.576Z,4.10
2018-08-20T02:11:23.997Z,4.40
2018-08-20T02:13:53.412Z,4.70
2018-08-20T02:16:22.685Z,4.80
2018-08-20T02:18:52.033Z,4.80
2018-08-20T02:21:21.212Z,4.47
2018-08-20T02:23:50.352Z,4.90
2018-08-20T02:26:19.420Z,5.03
2018-08-20T02:28:48.568Z,4.90
2018-08-20T02:31:17.732Z,4.92
2018-08-20T02:33:46.880Z,5.30
2018-08-20T02:36:16.058Z,5.33
2018-08-20T02:38:45.319Z,5.53
2018-08-20T02:41:14.666Z,5.60
2018-08-20T02:43:43.880Z,5.60
2018-08-20T02:46:13.241Z,5.33
2018-08-20T02:48:42.317Z,5.33
2018-08-20T02:51:11.452Z,5.50
2018-08-20T02:53:40.523Z,5.53
2018-08-20T02:56:09.864Z,6.03
2018-08-20T02:58:39.040Z,5.85
2018-08-20T03:01:08.400Z,5.45
2018-08-20T03:03:37.740Z,6.00
2018-08-20T03:06:07.221Z,6.25
2018-08-20T03:08:36.408Z,6.08
2018-08-20T03:11:05.638Z,6.30
2018-08-20T03:13:34.816Z,5.85
2018-08-20T03:16:04.064Z,6.28
2018-08-20T03:18:33.349Z,5.95
2018-08-20T03:21:02.696Z,5.92
2018-08-20T03:23:31.858Z,6.35
2018-08-20T03:26:01.000Z,6.00
2018-08-20T03:28:30.081Z,5.78
2018-08-20T03:30:59.327Z,6.15
2018-08-20T03:33:28.504Z,5.80
2018-08-20T03:35:57.965Z,5.60
2018-08-20T03:38:27.223Z,5.80
2018-08-20T03:40:56.538Z,5.30
2018-08-20T03:43:25.755Z,5.80
2018-08-20T03:45:55.023Z,5.95
2018-08-20T03:48:24.255Z,5.60
2018-08-20T03:50:53.631Z,5.50
2018-08-20T03:53:22.771Z,5.23
2018-08-20T03:55:51.948Z,5.50
2018-08-20T03:58:21.092Z,5.60
2018-08-20T04:00:50.383Z,5.40
2018-08-20T04:03:19.598Z,5.15
2018-08-20T04:05:48.942Z,5.00
2018-08-20T04:08:18.037Z,4.65
2018-08-20T04:10:47.100Z,5.10
2018-08-20T04:13:16.359Z,5.00
2018-08-20T04:15:45.432Z,4.62
2018-08-20T04:18:14.556Z,4.57
2018-08-20T04:20:43.744Z,4.17
2018-08-20T04:23:13.113Z,3.95
2018-08-20T04:25:42.372Z,4.30
2018-08-20T04:28:11.576Z,4.17
2018-08-20T04:30:40.676Z,4.65
2018-08-20T04:33:10.135Z,4.65
2018-08-20T04:35:39.452Z,4.15
2018-08-20T04:38:08.720Z,4.87
2018-08-20T04:40:37.942Z,4.60
2018-08-20T04:43:07.390Z,5.47
2018-08-20T04:45:36.896Z,5.27
2018-08-20T04:48:06.478Z,4.97
2018-08-20T04:50:35.835Z,4.47
2018-08-20T04:53:05.245Z,4.15
2018-08-20T04:55:34.552Z,3.70
2018-08-20T04:58:03.825Z,4.25
2018-08-20T05:00:33.173Z,4.50
2018-08-20T05:03:02.658Z,4.20
2018-08-20T05:05:31.871Z,4.17
2018-08-20T05:08:01.384Z,4.28
2018-08-20T05:10:30.645Z,4.30
2018-08-20T05:12:59.807Z,4.92
2018-08-20T05:15:28.944Z,4.92
2018-08-20T05:17:58.232Z,4.83
2018-08-20T05:20:27.369Z,4.60
2018-08-20T05:22:56.482Z,4.67
2018-08-20T05:25:25.757Z,5.35
2018-08-20T05:27:55.000Z,4.62
2018-08-20T05:30:24.294Z,5.20
2018-08-20T05:32:53.692Z,5.73
2018-08-20T05:35:22.941Z,5.20
2018-08-20T05:37:52.060Z,5.72
2018-08-20T05:40:21.233Z,6.00
2018-08-20T05:42:50.472Z,5.37
2018-08-20T05:45:19.658Z,5.40
2018-08-20T05:47:48.949Z,5.55
2018-08-20T05:50:18.407Z,5.20
2018-08-20T05:52:48.533Z,5.07
2018-08-20T05:55:17.853Z,5.40
2018-08-20T05:57:47.056Z,5.20
2018-08-20T06:00:17.745Z,5.35
2018-08-20T06:02:47.537Z,5.05
2018-08-20T06:05:16.692Z,6.17
2018-08-20T06:07:45.928Z,5.60
2018-08-20T06:10:15.369Z,5.97
2018-08-20T06:12:44.452Z,6.12
2018-08-20T06:15:14.601Z,6.28
2018-08-20T06:17:43.816Z,6.00
2018-08-20T06:20:16.091Z,6.12
2018-08-20T06:22:45.705Z,5.83
2018-08-20T06:25:15.283Z,5.62
2018-08-20T06:27:44.757Z,5.20
2018-08-20T06:30:17.972Z,6.00
2018-08-20T06:32:47.630Z,5.55
2018-08-20T06:35:16.941Z,5.70
2018-08-20T06:37:46.209Z,5.50
2018-08-20T06:40:15.750Z,5.83
2018-08-20T06:42:44.992Z,6.50
2018-08-20T06:45:16.132Z,6.37
2018-08-20T06:47:46.126Z,6.10
2018-08-20T06:50:15.844Z,6.10
2018-08-20T06:52:45.808Z,6.33
2018-08-20T06:55:16.153Z,6.20
2018-08-20T06:57:46.345Z,7.28
2018-08-20T07:00:15.860Z,6.47
2018-08-20T07:02:45.220Z,7.00
2018-08-20T07:05:14.468Z,7.17
2018-08-20T07:07:43.849Z,7.17
2018-08-20T07:10:13.985Z,6.80
2018-08-20T07:12:43.240Z,7.03
2018-08-20T07:15:14.252Z,7.30
2018-08-20T07:17:43.629Z,6.85
2018-08-20T07:20:14.220Z,6.97
2018-08-20T07:22:43.557Z,7.20
2018-08-20T07:25:12.970Z,6.90
2018-08-20T07:27:42.380Z,6.92
2018-08-20T07:30:12.048Z,7.20
2018-08-20T07:32:41.385Z,7.62
2018-08-20T07:35:10.836Z,8.28
2018-08-20T07:37:40.045Z,8.05
2018-08-20T07:40:09.564Z,8.55
2018-08-20T07:42:38.873Z,9.90
2018-08-20T07:45:08.292Z,9.43
2018-08-20T07:47:37.559Z,8.93
2018-08-20T07:50:06.932Z,8.10
2018-08-20T07:52:36.196Z,7.90
2018-08-20T07:55:05.600Z,7.30
2018-08-20T07:57:34.840Z,7.28
2018-08-20T08:00:04.097Z,7.95
2018-08-20T08:02:33.380Z,7.50
2018-08-20T08:05:02.553Z,7.45
2018-08-20T08:07:32.000Z,8.23
2018-08-20T08:10:01.169Z,7.40
2018-08-20T08:12:30.421Z,7.35
2018-08-20T08:14:59.588Z,8.90
2018-08-20T08:17:29.043Z,7.33
2018-08-20T08:19:58.292Z,7.23
2018-08-20T08:22:27.772Z,8.35
2018-08-20T08:24:57.252Z,7.33
2018-08-20T08:27:26.669Z,7.00
2018-08-20T08:29:56.025Z,8.50
2018-08-20T08:32:25.535Z,8.63
2018-08-20T08:34:55.052Z,8.40
2018-08-20T08:37:24.380Z,8.28
2018-08-20T08:39:53.984Z,9.00
2018-08-20T08:42:23.512Z,8.78
2018-08-20T08:44:52.812Z,7.90
2018-08-20T08:47:22.137Z,7.67
2018-08-20T08:49:51.493Z,7.92
2018-08-20T08:52:20.740Z,8.13
2018-08-20T08:54:50.129Z,7.77
2018-08-20T08:57:19.484Z,8.38
2018-08-20T08:59:48.654Z,10.15
2018-08-20T09:02:17.392Z,10.10
2018-08-20T09:04:46.693Z,9.80
2018-08-20T09:07:16.112Z,12.05
2018-08-20T09:09:45.397Z,11.33
2018-08-20T09:12:14.542Z,10.75
2018-08-20T09:14:43.914Z,11.40
2018-08-20T09:17:13.373Z,9.80
2018-08-20T09:19:42.640Z,10.25
2018-08-20T09:22:11.883Z,11.22
2018-08-20T09:24:41.163Z,11.38
2018-08-20T09:27:10.625Z,11.38
2018-08-20T09:29:39.693Z,11.08
2018-08-20T09:32:09.098Z,10.65
2018-08-20T09:34:38.435Z,9.78
2018-08-20T09:37:07.824Z,10.00
2018-08-20T09:39:37.492Z,9.43
2018-08-20T09:42:06.753Z,10.70
2018-08-20T09:44:35.996Z,10.45
2018-08-20T09:47:05.290Z,9.95
2018-08-20T09:49:34.519Z,9.87
2018-08-20T09:52:04.004Z,10.78
2018-08-20T09:54:33.152Z,10.38
2018-08-20T09:57:02.569Z,11.08
2018-08-20T09:59:31.793Z,9.55
2018-08-20T10:02:00.883Z,10.35
2018-08-20T10:04:30.138Z,10.25
2018-08-20T10:06:59.385Z,10.03
2018-08-20T10:09:28.958Z,10.57
2018-08-20T10:11:58.236Z,10.30
2018-08-20T10:14:27.734Z,9.93
2018-08-20T10:16:57.032Z,11.05
2018-08-20T10:19:26.159Z,9.30
2018-08-20T10:21:55.568Z,9.70
2018-08-20T10:24:25.021Z,8.60
2018-08-20T10:26:54.192Z,9.80
2018-08-20T10:29:23.639Z,9.60
2018-08-20T10:31:52.787Z,10.40
2018-08-20T10:34:21.874Z,9.25
2018-08-20T10:36:51.025Z,9.98
2018-08-20T10:39:20.161Z,9.45
2018-08-20T10:41:49.346Z,9.40
2018-08-20T10:44:18.697Z,7.33
2018-08-20T10:46:47.962Z,8.53
2018-08-20T10:49:17.113Z,9.03
2018-08-20T10:51:46.174Z,8.70
2018-08-20T10:54:15.380Z,9.05
2018-08-20T10:56:44.633Z,8.80
2018-08-20T10:59:13.781Z,8.33
2018-08-20T11:01:43.153Z,8.45
2018-08-20T11:04:12.324Z,9.37
2018-08-20T11:06:41.772Z,8.85
2018-08-20T11:09:11.055Z,8.88
2018-08-20T11:11:40.221Z,8.78
2018-08-20T11:14:09.382Z,8.85
2018-08-20T11:16:38.514Z,8.03
2018-08-20T11:19:07.688Z,8.00
2018-08-20T11:21:36.833Z,7.35
2018-08-20T11:24:06.035Z,8.25
2018-08-20T11:26:35.152Z,7.50
2018-08-20T11:29:04.536Z,7.25
2018-08-20T11:31:33.785Z,7.67
2018-08-20T11:34:03.053Z,7.60
2018-08-20T11:36:32.312Z,6.97
2018-08-20T11:39:01.589Z,7.20
2018-08-20T11:41:30.836Z,7.67
2018-08-20T11:44:00.001Z,7.10
2018-08-20T11:46:29.941Z,6.50
2018-08-20T11:48:59.198Z,7.50
2018-08-20T11:51:28.596Z,7.30
2018-08-20T11:53:57.969Z,6.58
2018-08-20T11:56:27.304Z,6.33
2018-08-20T11:58:56.612Z,6.03
2018-08-20T12:01:25.810Z,6.67
2018-08-20T12:03:56.102Z,5.85
2018-08-20T12:06:26.355Z,6.00
2018-08-20T12:08:55.595Z,6.45
2018-08-20T12:11:25.027Z,6.80
2018-08-20T12:13:54.240Z,7.17
2018-08-20T12:16:23.636Z,6.97
2018-08-20T12:18:52.886Z,7.67
2018-08-20T12:21:22.084Z,7.28
2018-08-20T12:23:51.281Z,8.18
2018-08-20T12:26:20.460Z,8.15
2018-08-20T12:28:49.681Z,8.60
2018-08-20T12:31:18.772Z,9.48
2018-08-20T12:33:48.041Z,9.80
2018-08-20T12:36:17.500Z,9.77
2018-08-20T12:38:46.549Z,9.45
2018-08-20T12:41:15.764Z,9.23
2018-08-20T12:43:44.963Z,8.40
2018-08-20T12:46:17.104Z,7.95
2018-08-20T12:48:46.547Z,7.80
2018-08-20T12:51:15.884Z,7.92
2018-08-20T12:53:45.225Z,7.25
2018-08-20T12:56:14.404Z,5.65
2018-08-20T12:58:47.389Z,6.20
2018-08-20T13:01:16.717Z,5.27
2018-08-20T13:03:46.143Z,4.97
2018-08-20T13:06:15.415Z,4.97
2018-08-20T13:08:45.722Z,5.50
2018-08-20T13:11:14.995Z,5.47
2018-08-20T13:13:44.161Z,5.40
2018-08-20T13:16:13.534Z,6.03
2018-08-20T13:18:42.720Z,5.50
2018-08-20T13:21:11.936Z,5.60
2018-08-20T13:23:41.316Z,5.20
2018-08-20T13:26:10.573Z,5.20
2018-08-20T13:28:39.843Z,5.33
2018-08-20T13:31:09.285Z,5.85
2018-08-20T13:33:38.569Z,5.65
2018-08-20T13:36:07.913Z,5.65
2018-08-20T13:38:37.192Z,6.13
2018-08-20T13:41:06.861Z,6.45
2018-08-20T13:43:36.020Z,6.33
2018-08-20T13:46:05.369Z,6.07
2018-08-20T13:48:34.532Z,5.87
2018-08-20T13:51:03.787Z,6.05
2018-08-20T13:53:32.980Z,5.35
2018-08-20T13:56:02.725Z,5.20
2018-08-20T13:58:32.018Z,4.62
2018-08-20T14:01:01.315Z,5.20
2018-08-20T14:03:30.770Z,5.10
2018-08-20T14:05:59.975Z,4.62
2018-08-20T14:08:29.365Z,5.00
2018-08-20T14:10:58.681Z,5.20
2018-08-20T14:13:28.181Z,5.40
2018-08-20T14:15:57.642Z,5.12
2018-08-20T14:18:26.895Z,4.80
2018-08-20T14:21:07.016Z,5.05
2018-08-20T14:23:36.373Z,5.12
2018-08-20T14:26:05.568Z,4.90
2018-08-20T14:28:34.748Z,4.58
2018-08-20T14:31:04.056Z,5.40
2018-08-20T14:33:33.364Z,4.70
2018-08-20T14:36:02.657Z,5.30
2018-08-20T14:38:32.092Z,5.00
2018-08-20T14:41:01.386Z,5.13
2018-08-20T14:43:30.744Z,4.80
2018-08-20T14:46:04.952Z,4.42
2018-08-20T14:48:34.278Z,4.12
2018-08-20T14:51:03.750Z,4.30
2018-08-20T14:53:33.012Z,3.75
2018-08-20T14:56:02.232Z,4.35
2018-08-20T14:58:31.648Z,3.75
2018-08-20T15:01:01.249Z,3.60
2018-08-20T15:03:30.610Z,3.12
2018-08-20T15:05:59.746Z,2.97
2018-08-20T15:08:29.071Z,2.80
2018-08-20T15:10:58.295Z,2.50
2018-08-20T15:13:27.461Z,1.72
2018-08-20T15:15:57.016Z,1.80
2018-08-20T15:18:26.298Z,1.50
2018-08-20T15:20:55.538Z,1.40
2018-08-20T15:23:25.030Z,1.22
2018-08-20T15:25:54.416Z,1.10
2018-08-20T15:28:23.774Z,1.00
2018-08-20T15:30:53.108Z,1.20
2018-08-20T15:33:22.914Z,1.00
2018-08-20T15:35:52.041Z,0.80
2018-08-20T15:38:21.192Z,0.80
2018-08-20T15:40:50.641Z,0.90
2018-08-20T15:43:19.818Z,1.00
2018-08-20T15:45:49.269Z,0.70
2018-08-20T15:48:18.540Z,0.90
2018-08-20T15:50:48.272Z,0.72
2018-08-20T15:53:17.380Z,0.90
2018-08-20T15:55:46.559Z,0.80
2018-08-20T15:58:15.708Z,0.90
2018-08-20T16:00:44.996Z,0.70
2018-08-20T16:03:14.143Z,1.00
2018-08-20T16:05:43.316Z,0.80
2018-08-20T16:08:12.478Z,0.80
2018-08-20T16:10:41.748Z,0.90
2018-08-20T16:13:11.193Z,0.90
2018-08-20T16:15:40.389Z,0.82
2018-08-20T16:18:09.939Z,0.90
2018-08-20T16:20:39.201Z,0.88
2018-08-20T16:23:08.609Z,0.90
2018-08-20T16:25:38.188Z,1.00
2018-08-20T16:28:07.584Z,1.10
2018-08-20T16:30:36.896Z,1.82
2018-08-20T16:33:06.101Z,1.20
2018-08-20T16:35:35.384Z,0.98
2018-08-20T16:38:04.733Z,0.90
2018-08-20T16:40:33.900Z,1.10
2018-08-20T16:43:03.053Z,0.80
2018-08-20T16:45:32.356Z,0.90
2018-08-20T16:48:01.793Z,1.00
2018-08-20T16:50:31.051Z,0.90
2018-08-20T16:53:00.713Z,0.90
2018-08-20T16:55:30.010Z,0.82
2018-08-20T16:57:59.346Z,1.15
2018-08-20T17:00:28.491Z,0.90
2018-08-20T17:02:57.905Z,1.00
2018-08-20T17:05:33.679Z,0.93
2018-08-20T17:08:03.109Z,1.00
2018-08-20T17:10:32.354Z,0.90
2018-08-20T17:13:01.769Z,0.98
2018-08-20T17:15:31.470Z,1.00
2018-08-20T17:18:00.651Z,1.17
2018-08-20T17:20:30.120Z,1.10
2018-08-20T17:23:11.460Z,1.00
2018-08-20T17:25:40.823Z,1.10
2018-08-20T17:28:10.224Z,1.07
2018-08-20T17:30:39.561Z,1.17
2018-08-20T17:33:08.919Z,1.20
2018-08-20T17:35:41.319Z,1.25
2018-08-20T17:38:10.515Z,1.10
2018-08-20T17:40:40.438Z,1.25
2018-08-20T17:43:10.079Z,1.15
2018-08-20T17:45:39.425Z,1.25
2018-08-20T17:48:16.384Z,1.20
2018-08-20T17:50:45.724Z,1.20
2018-08-20T17:53:14.888Z,1.30
2018-08-20T17:55:44.407Z,1.30
2018-08-20T17:58:13.600Z,1.20
2018-08-20T18:00:47.135Z,1.50
2018-08-20T18:03:31.165Z,1.20
2018-08-20T18:06:07.066Z,1.30
2018-08-20T18:08:36.520Z,1.10
2018-08-20T18:11:06.767Z,1.33
2018-08-20T18:13:48.682Z,1.30
2018-08-20T18:16:19.316Z,1.40
2018-08-20T18:18:50.033Z,1.20
2018-08-20T18:21:19.404Z,1.10
2018-08-20T18:23:48.688Z,1.30
2018-08-20T18:26:17.933Z,1.17
2018-08-20T18:28:52.572Z,1.13
2018-08-20T18:31:27.920Z,1.00
2018-08-20T18:33:57.215Z,1.00
2018-08-20T18:36:30.147Z,1.03
2018-08-20T18:39:05.874Z,1.00
2018-08-20T18:41:55.184Z,1.00
2018-08-20T18:44:24.696Z,1.00
2018-08-20T18:46:54.138Z,1.00
2018-08-20T18:49:23.809Z,1.30
2018-08-20T18:52:11.761Z,1.27
2018-08-20T18:54:45.617Z,1.30
2018-08-20T18:57:17.488Z,1.30
2018-08-20T18:59:46.740Z,1.30
2018-08-20T19:02:27.755Z,14.50
2018-08-20T19:04:57.169Z,1.27
2018-08-20T19:07:26.698Z,5.10
2018-08-20T19:09:56.137Z,1.20
2018-08-20T19:12:25.432Z,1.10
2018-08-20T19:14:54.952Z,1.40
2018-08-20T19:17:28.800Z,1.02
2018-08-20T19:20:02.670Z,1.37
2018-08-20T19:22:32.109Z,1.00
2018-08-20T19:25:02.138Z,0.95
2018-08-20T19:27:32.492Z,1.00
2018-08-20T19:30:11.717Z,0.98
2018-08-20T19:32:41.033Z,1.07
2018-08-20T19:35:10.277Z,0.90
2018-08-20T19:37:39.416Z,0.88
2018-08-20T19:40:09.272Z,1.00
2018-08-20T19:42:38.590Z,1.17
2018-08-20T19:45:09.846Z,1.20
2018-08-20T19:47:39.025Z,1.15
2018-08-20T19:50:09.958Z,1.32
2018-08-20T19:52:39.351Z,1.20
2018-08-20T19:55:11.119Z,1.20
2018-08-20T19:57:40.515Z,1.10
2018-08-20T20:00:13.676Z,1.17
2018-08-20T20:02:44.181Z,1.20
2018-08-20T20:05:14.523Z,1.20
2018-08-20T20:07:55.988Z,1.30
2018-08-20T20:10:25.296Z,1.00
2018-08-20T20:12:55.544Z,1.10
2018-08-20T20:15:25.630Z,0.98
2018-08-20T20:17:55.928Z,0.90
2018-08-20T20:20:25.202Z,1.20
2018-08-20T20:22:54.485Z,1.10
2018-08-20T20:25:23.861Z,1.10
2018-08-20T20:27:53.114Z,1.10
2018-08-20T20:30:22.359Z,1.02
2018-08-20T20:32:51.674Z,1.20
2018-08-20T20:35:20.992Z,1.00
2018-08-20T20:37:50.349Z,0.90
2018-08-20T20:40:19.616Z,0.95
2018-08-20T20:42:48.895Z,0.90
2018-08-20T20:45:18.436Z,1.20
2018-08-20T20:47:47.916Z,1.02
2018-08-20T20:50:17.060Z,0.93
2018-08-20T20:52:46.340Z,1.15
2018-08-20T20:55:15.676Z,1.27
2018-08-20T20:57:45.077Z,1.20
2018-08-20T21:00:14.523Z,1.22
2018-08-20T21:02:43.924Z,1.12
2018-08-20T21:05:13.573Z,1.00
2018-08-20T21:07:43.014Z,1.10
2018-08-20T21:10:12.351Z,1.22
2018-08-20T21:12:41.817Z,1.10
2018-08-20T21:15:11.019Z,1.20
2018-08-20T21:17:40.328Z,1.17
2018-08-20T21:20:09.641Z,1.10
2018-08-20T21:22:39.339Z,1.07
2018-08-20T21:25:09.742Z,1.17
2018-08-20T21:27:39.416Z,1.10
2018-08-20T21:30:08.732Z,1.10
2018-08-20T21:32:38.060Z,1.10
2018-08-20T21:35:07.348Z,1.10
2018-08-20T21:37:36.868Z,1.00
2018-08-20T21:40:06.569Z,1.07
2018-08-20T21:42:42.025Z,1.00
2018-08-20T21:45:11.828Z,1.15
2018-08-20T21:47:41.335Z,1.00
2018-08-20T21:50:10.678Z,1.00
2018-08-20T21:52:40.033Z,1.00
2018-08-20T21:55:09.298Z,0.90
2018-08-20T21:57:42.371Z,0.90
2018-08-20T22:00:14.604Z,0.98
2018-08-20T22:02:48.257Z,1.10
2018-08-20T22:05:17.498Z,1.10
2018-08-20T22:07:46.896Z,0.90
2018-08-20T22:10:16.039Z,1.10
2018-08-20T22:12:45.437Z,1.10
2018-08-20T22:15:14.792Z,1.10
2018-08-20T22:17:44.098Z,1.07
2018-08-20T22:20:13.492Z,0.98
2018-08-20T22:22:42.904Z,0.90
2018-08-20T22:25:13.577Z,0.90
2018-08-20T22:27:47.925Z,1.00
2018-08-20T22:30:17.312Z,0.98
2018-08-20T22:32:46.891Z,0.90
2018-08-20T22:35:27.403Z,1.10
2018-08-20T22:37:56.689Z,1.10
2018-08-20T22:40:26.252Z,1.07
2018-08-20T22:42:58.223Z,1.00
2018-08-20T22:45:27.639Z,1.00
2018-08-20T22:47:57.253Z,1.10
2018-08-20T22:50:26.455Z,1.10
2018-08-20T22:52:55.645Z,1.07
2018-08-20T22:55:25.003Z,1.00
2018-08-20T22:58:05.228Z,1.07
2018-08-20T23:00:34.599Z,1.05
2018-08-20T23:03:04.315Z,1.20
2018-08-20T23:05:34.113Z,1.20
2018-08-20T23:08:19.230Z,1.27
2018-08-20T23:10:48.605Z,1.05
2018-08-20T23:13:17.927Z,1.32
2018-08-20T23:15:47.120Z,1.30
2018-08-20T23:18:16.420Z,1.10
2018-08-20T23:20:47.157Z,0.93
2018-08-20T23:23:21.831Z,1.20
2018-08-20T23:25:55.657Z,1.00
2018-08-20T23:28:25.061Z,1.07
2018-08-20T23:30:58.403Z,1.00
2018-08-20T23:33:27.685Z,1.10
2018-08-20T23:35:56.996Z,1.30
2018-08-20T23:38:26.728Z,1.25
2018-08-20T23:40:56.132Z,1.00
2018-08-20T23:43:25.512Z,1.00
2018-08-20T23:45:54.861Z,1.27
2018-08-20T23:48:24.204Z,1.40
2018-08-20T23:50:59.091Z,1.10
2018-08-20T23:53:29.057Z,1.20
2018-08-20T23:55:58.170Z,1.15
2018-08-20T23:58:27.217Z,1.40
